createdAt,value
2018-12-05T00:01:18.317Z,91.91
2018-12-05T00:03:47.167Z,93.47
2018-12-05T00:06:16.017Z,94.07
2018-12-05T00:08:46.925Z,94.48
2018-12-05T00:11:15.910Z,93.57
2018-12-05T00:13:44.750Z,93.16
2018-12-05T00:16:13.591Z,92.74
2018-12-05T00:18:42.490Z,93.07
2018-12-05T00:21:11.362Z,92.72
2018-12-05T00:23:40.288Z,93.46
2018-12-05T00:26:09.154Z,93.63
2018-12-05T00:28:37.990Z,93.23
2018-12-05T00:31:06.823Z,93.65
2018-12-05T00:33:35.713Z,92.61
2018-12-05T00:36:04.663Z,92.94
2018-12-05T00:38:33.527Z,93.19
2018-12-05T00:41:02.473Z,93.01
2018-12-05T00:43:31.282Z,92.09
2018-12-05T00:46:00.160Z,91.97
2018-12-05T00:48:29.056Z,90.93
2018-12-05T00:50:57.883Z,90.60
2018-12-05T00:53:26.886Z,91.27
2018-12-05T00:55:55.776Z,92.00
2018-12-05T00:58:24.926Z,92.03
2018-12-05T01:00:55.241Z,91.78
2018-12-05T01:03:24.106Z,92.02
2018-12-05T01:05:53.283Z,92.61
2018-12-05T01:08:22.133Z,92.45
2018-12-05T01:10:50.985Z,92.45
2018-12-05T01:13:19.780Z,91.80
2018-12-05T01:15:48.640Z,92.83
2018-12-05T01:18:17.452Z,92.49
2018-12-05T01:20:46.297Z,94.83
2018-12-05T01:23:15.197Z,97.05
2018-12-05T01:25:44.082Z,97.21
2018-12-05T01:28:12.916Z,96.43
2018-12-05T01:30:41.772Z,96.80
2018-12-05T01:33:10.725Z,97.02
2018-12-05T01:35:39.550Z,96.85
2018-12-05T01:38:08.367Z,97.04
2018-12-05T01:40:37.216Z,97.25
2018-12-05T01:43:06.691Z,97.05
2018-12-05T01:45:35.524Z,97.52
2018-12-05T01:48:04.553Z,96.83
2018-12-05T01:50:33.401Z,95.87
2018-12-05T01:53:02.267Z,95.10
2018-12-05T01:55:34.023Z,95.10
2018-12-05T01:58:02.981Z,94.90
2018-12-05T02:00:31.826Z,94.67
2018-12-05T02:03:00.762Z,93.89
2018-12-05T02:05:29.572Z,93.57
2018-12-05T02:07:58.403Z,93.13
2018-12-05T02:10:27.274Z,93.13
2018-12-05T02:12:56.076Z,93.54
2018-12-05T02:15:24.988Z,93.00
2018-12-05T02:17:53.866Z,93.11
2018-12-05T02:20:22.890Z,93.08
2018-12-05T02:22:52.035Z,93.45
2018-12-05T02:25:20.991Z,93.30
2018-12-05T02:27:49.801Z,92.99
2018-12-05T02:30:18.614Z,92.95
2018-12-05T02:32:48.584Z,92.54
2018-12-05T02:35:17.422Z,92.52
2018-12-05T02:37:46.252Z,92.36
2018-12-05T02:40:15.445Z,92.43
2018-12-05T02:42:44.299Z,92.31
2018-12-05T02:45:13.119Z,92.08
2018-12-05T02:47:43.644Z,91.61
2018-12-05T02:50:16.215Z,91.83
2018-12-05T02:52:45.105Z,91.28
2018-12-05T02:55:14.088Z,91.58
2018-12-05T02:57:42.936Z,91.01
2018-12-05T03:00:11.873Z,91.07
2018-12-05T03:02:40.713Z,91.22
2018-12-05T03:05:09.958Z,91.02
2018-12-05T03:07:38.783Z,91.61
2018-12-05T03:10:07.615Z,91.62
2018-12-05T03:12:36.449Z,91.80
2018-12-05T03:15:06.292Z,92.53
2018-12-05T03:17:35.161Z,92.28
2018-12-05T03:20:05.388Z,92.55
2018-12-05T03:22:34.571Z,92.54
2018-12-05T03:25:03.458Z,92.70
2018-12-05T03:27:32.486Z,92.88
2018-12-05T03:30:01.413Z,92.86
2018-12-05T03:32:30.317Z,93.68
2018-12-05T03:35:00.428Z,93.91
2018-12-05T03:37:29.262Z,94.25
2018-12-05T03:39:58.189Z,94.31
2018-12-05T03:42:27.027Z,94.32
2018-12-05T03:44:56.981Z,94.95
2018-12-05T03:47:25.853Z,95.25
2018-12-05T03:49:59.665Z,95.29
2018-12-05T03:52:30.943Z,95.31
2018-12-05T03:54:59.874Z,95.03
2018-12-05T03:57:28.757Z,94.56
2018-12-05T03:59:57.606Z,94.08
2018-12-05T04:02:26.426Z,94.05
2018-12-05T04:04:56.487Z,93.52
2018-12-05T04:07:25.307Z,93.83
2018-12-05T04:09:54.154Z,93.93
2018-12-05T04:12:23.066Z,93.86
2018-12-05T04:14:51.906Z,93.67
2018-12-05T04:17:20.712Z,93.63
2018-12-05T04:19:49.584Z,93.55
2018-12-05T04:22:18.475Z,93.74
2018-12-05T04:24:47.317Z,93.73
2018-12-05T04:27:16.242Z,93.91
2018-12-05T04:29:45.059Z,94.44
2018-12-05T04:32:15.865Z,94.91
2018-12-05T04:34:44.848Z,94.54
2018-12-05T04:37:13.676Z,94.60
2018-12-05T04:39:42.587Z,94.54
2018-12-05T04:42:11.375Z,94.27
2018-12-05T04:44:40.317Z,94.40
2018-12-05T04:47:09.229Z,94.25
2018-12-05T04:49:38.077Z,93.62
2018-12-05T04:52:07.099Z,94.37
2018-12-05T04:54:36.000Z,94.54
2018-12-05T04:57:04.839Z,93.85
2018-12-05T04:59:33.660Z,93.89
2018-12-05T05:02:03.834Z,93.94
2018-12-05T05:04:32.673Z,94.54
2018-12-05T05:07:01.552Z,95.19
2018-12-05T05:09:30.437Z,95.61
2018-12-05T05:11:59.252Z,95.55
2018-12-05T05:14:28.039Z,95.86
2018-12-05T05:16:56.940Z,96.09
2018-12-05T05:19:25.741Z,96.66
2018-12-05T05:21:54.550Z,96.53
2018-12-05T05:24:24.685Z,95.80
2018-12-05T05:26:53.633Z,95.76
2018-12-05T05:31:56.572Z,96.09
2018-12-05T05:34:25.463Z,96.00
2018-12-05T05:36:54.293Z,95.06
2018-12-05T05:39:23.208Z,94.35
2018-12-05T05:41:52.093Z,91.67
2018-12-05T05:44:20.949Z,90.73
2018-12-05T05:46:50.110Z,88.85
2018-12-05T05:49:18.956Z,89.44
2018-12-05T05:51:47.744Z,89.09
2018-12-05T05:54:21.930Z,85.16
2018-12-05T05:56:50.989Z,83.32
2018-12-05T05:59:19.853Z,83.19
2018-12-05T06:01:51.072Z,82.07
2018-12-05T06:04:22.430Z,83.41
2018-12-05T06:06:51.605Z,81.34
2018-12-05T06:09:20.436Z,79.82
2018-12-05T06:11:52.625Z,79.48
2018-12-05T06:14:21.570Z,81.04
2018-12-05T06:16:50.539Z,80.45
2018-12-05T06:19:19.436Z,81.04
2018-12-05T06:21:48.246Z,82.11
2018-12-05T06:24:17.163Z,82.24
2018-12-05T06:26:46.038Z,82.66
2018-12-05T06:29:14.886Z,81.25
2018-12-05T06:31:43.818Z,82.87
2018-12-05T06:34:14.198Z,83.80
2018-12-05T06:36:49.310Z,84.00
2018-12-05T06:39:18.217Z,83.56
2018-12-05T06:41:47.050Z,83.36
2018-12-05T06:44:15.898Z,84.28
2018-12-05T06:46:44.792Z,84.44
2018-12-05T06:49:13.731Z,84.66
2018-12-05T06:51:50.437Z,83.93
2018-12-05T06:54:19.309Z,83.00
2018-12-05T06:56:48.166Z,83.66
2018-12-05T06:59:17.099Z,83.42
2018-12-05T07:01:45.967Z,83.19
2018-12-05T07:04:15.427Z,83.17
2018-12-05T07:09:23.889Z,82.31
2018-12-05T07:11:53.097Z,83.21
2018-12-05T07:14:21.936Z,83.13
2018-12-05T07:16:50.770Z,84.43
2018-12-05T07:19:19.639Z,83.99
2018-12-05T07:21:48.485Z,82.73
2018-12-05T07:24:17.340Z,82.33
2018-12-05T07:26:46.216Z,80.17
2018-12-05T07:29:16.069Z,78.88
2018-12-05T07:31:44.886Z,79.07
2018-12-05T07:34:13.809Z,78.08
2018-12-05T07:36:42.842Z,78.37
2018-12-05T07:39:12.285Z,77.73
2018-12-05T07:41:41.175Z,77.02
2018-12-05T07:44:10.644Z,77.54
2018-12-05T07:46:40.386Z,76.96
2018-12-05T07:49:09.258Z,77.35
2018-12-05T07:51:38.057Z,77.71
2018-12-05T07:54:07.157Z,75.54
2018-12-05T07:56:37.370Z,75.77
2018-12-05T07:59:06.383Z,73.76
2018-12-05T08:01:35.449Z,76.07
2018-12-05T08:04:04.392Z,73.94
2018-12-05T08:06:33.241Z,65.62
2018-12-05T08:09:02.128Z,61.21
2018-12-05T08:11:30.970Z,63.97
2018-12-05T08:13:59.834Z,64.40
2018-12-05T08:16:28.745Z,67.43
2018-12-05T08:18:57.591Z,66.74
2018-12-05T08:21:26.420Z,59.87
2018-12-05T08:23:55.961Z,63.66
2018-12-05T08:26:24.785Z,65.20
2018-12-05T08:28:53.648Z,63.54
2018-12-05T08:31:22.497Z,61.78
2018-12-05T08:33:51.363Z,62.28
2018-12-05T08:36:20.222Z,60.91
2018-12-05T08:38:49.098Z,58.56
2018-12-05T08:41:17.925Z,58.76
2018-12-05T08:43:46.778Z,57.84
2018-12-05T08:46:15.653Z,57.58
2018-12-05T08:48:44.522Z,57.51
2018-12-05T08:51:13.356Z,57.77
2018-12-05T08:53:42.201Z,56.63
2018-12-05T08:56:11.111Z,54.45
2018-12-05T08:58:39.981Z,55.19
2018-12-05T09:01:08.916Z,54.80
2018-12-05T09:03:38.955Z,56.80
2018-12-05T09:06:07.806Z,56.52
2018-12-05T09:08:36.751Z,56.75
2018-12-05T09:11:05.602Z,55.78
2018-12-05T09:13:34.486Z,59.21
2018-12-05T09:16:03.407Z,59.36
2018-12-05T09:18:32.232Z,60.56
2018-12-05T09:21:01.057Z,59.16
2018-12-05T09:23:31.201Z,60.00
2018-12-05T09:26:00.045Z,61.14
2018-12-05T09:28:28.904Z,61.72
2018-12-05T09:30:57.829Z,60.96
2018-12-05T09:33:26.766Z,62.34
2018-12-05T09:35:56.338Z,64.00
2018-12-05T09:38:25.243Z,62.42
2018-12-05T09:40:54.089Z,61.77
2018-12-05T09:43:22.925Z,61.73
2018-12-05T09:45:51.819Z,62.09
2018-12-05T09:48:20.706Z,59.83
2018-12-05T09:50:49.578Z,60.66
2018-12-05T09:53:18.517Z,59.89
2018-12-05T09:55:47.515Z,60.33
2018-12-05T09:58:16.337Z,58.23
2018-12-05T10:00:46.425Z,56.77
2018-12-05T10:03:15.257Z,55.44
2018-12-05T10:05:44.121Z,58.18
2018-12-05T10:08:13.030Z,57.72
2018-12-05T10:10:41.873Z,57.72
2018-12-05T10:13:10.741Z,57.84
2018-12-05T10:15:39.611Z,58.34
2018-12-05T10:18:08.440Z,58.93
2018-12-05T10:20:37.261Z,60.22
2018-12-05T10:23:07.948Z,60.88
2018-12-05T10:25:37.086Z,61.16
2018-12-05T10:28:05.957Z,62.30
2018-12-05T10:30:34.886Z,62.71
2018-12-05T10:33:03.734Z,61.57
2018-12-05T10:35:33.476Z,61.39
2018-12-05T10:38:02.406Z,61.19
2018-12-05T10:40:31.251Z,62.59
2018-12-05T10:43:00.075Z,62.92
2018-12-05T10:45:29.121Z,62.85
2018-12-05T10:47:57.975Z,63.79
2018-12-05T10:50:26.973Z,64.56
2018-12-05T10:52:55.865Z,62.80
2018-12-05T10:55:24.715Z,64.92
2018-12-05T10:57:55.050Z,63.25
2018-12-05T11:00:29.025Z,63.87
2018-12-05T11:03:03.043Z,63.48
2018-12-05T11:06:36.438Z,62.65
2018-12-05T11:09:12.968Z,63.21
2018-12-05T11:11:46.918Z,62.83
2018-12-05T11:14:20.855Z,63.90
2018-12-05T11:16:57.442Z,63.42
2018-12-05T11:20:33.824Z,64.83
2018-12-05T11:23:07.930Z,63.20
2018-12-05T11:25:36.836Z,63.47
2018-12-05T11:28:07.030Z,65.12
2018-12-05T11:30:35.881Z,65.51
2018-12-05T11:33:04.726Z,65.12
2018-12-05T11:35:36.309Z,65.85
2018-12-05T11:38:05.355Z,63.53
2018-12-05T11:40:34.177Z,65.26
2018-12-05T11:43:03.233Z,65.76
2018-12-05T11:45:33.418Z,66.18
2018-12-05T11:48:03.270Z,64.38
2018-12-05T11:50:40.450Z,65.82
2018-12-05T11:53:09.298Z,65.22
2018-12-05T11:55:44.737Z,65.99
2018-12-05T11:58:14.268Z,64.01
2018-12-05T12:00:45.194Z,64.65
2018-12-05T12:03:16.671Z,65.78
2018-12-05T12:05:47.330Z,62.31
2018-12-05T12:08:16.355Z,64.20
2018-12-05T12:10:45.999Z,63.84
2018-12-05T12:13:15.556Z,64.01
2018-12-05T12:15:44.581Z,64.69
2018-12-05T12:18:13.395Z,63.53
2018-12-05T12:20:43.602Z,64.70
2018-12-05T12:23:12.413Z,64.77
2018-12-05T12:25:41.265Z,64.19
2018-12-05T12:28:10.347Z,65.28
2018-12-05T12:30:39.174Z,65.88
2018-12-05T12:33:08.468Z,66.68
2018-12-05T12:35:37.354Z,66.64
2018-12-05T12:38:06.221Z,66.29
2018-12-05T12:40:35.818Z,66.71
2018-12-05T12:43:04.670Z,67.10
2018-12-05T12:45:33.534Z,66.91
2018-12-05T12:48:02.455Z,67.47
2018-12-05T12:50:31.316Z,70.69
2018-12-05T12:53:01.649Z,72.79
2018-12-05T12:55:30.469Z,73.68
2018-12-05T12:57:59.274Z,72.86
2018-12-05T13:00:28.191Z,73.15
2018-12-05T13:02:57.037Z,74.79
2018-12-05T13:05:25.869Z,72.04
2018-12-05T13:07:56.041Z,71.36
2018-12-05T13:10:24.879Z,72.55
2018-12-05T13:12:54.562Z,72.88
2018-12-05T13:18:03.205Z,74.25
2018-12-05T13:20:32.058Z,74.54
2018-12-05T13:36:44.798Z,72.24
2018-12-05T13:39:13.725Z,73.06
2018-12-05T13:41:42.637Z,74.01
2018-12-05T13:44:11.534Z,73.97
2018-12-05T13:46:40.401Z,73.74
2018-12-05T13:49:09.229Z,75.76
2018-12-05T13:51:38.031Z,75.53
2018-12-05T13:54:07.178Z,76.42
2018-12-05T13:56:36.005Z,76.57
2018-12-05T13:59:04.952Z,76.84
2018-12-05T14:01:33.989Z,76.54
2018-12-05T14:04:02.804Z,77.45
2018-12-05T14:06:31.674Z,76.91
2018-12-05T14:09:00.508Z,76.83
2018-12-05T14:11:29.452Z,76.94
2018-12-05T14:13:58.329Z,76.44
2018-12-05T14:16:28.398Z,77.25
2018-12-05T14:18:57.332Z,77.41
2018-12-05T14:21:26.155Z,78.00
2018-12-05T14:23:54.972Z,77.74
2018-12-05T14:26:25.113Z,78.03
2018-12-05T14:29:00.021Z,78.67
2018-12-05T14:31:28.962Z,78.42
2018-12-05T14:33:57.783Z,78.68
2018-12-05T14:36:26.603Z,79.72
2018-12-05T14:38:55.489Z,79.66
2018-12-05T14:44:04.964Z,78.41
2018-12-05T14:46:33.825Z,77.50
2018-12-05T14:49:02.750Z,77.69
2018-12-05T14:51:31.553Z,77.92
2018-12-05T14:54:00.369Z,76.18
2018-12-05T14:56:30.500Z,77.55
2018-12-05T14:58:59.343Z,78.20
2018-12-05T15:01:28.174Z,78.78
2018-12-05T15:03:57.062Z,78.38
2018-12-05T15:06:25.872Z,77.60
2018-12-05T15:08:54.701Z,78.11
2018-12-05T15:11:23.590Z,78.08
2018-12-05T15:13:52.454Z,78.19
2018-12-05T15:16:21.285Z,78.01
2018-12-05T15:18:50.174Z,77.18
2018-12-05T15:21:19.039Z,77.17
2018-12-05T15:23:47.883Z,75.85
2018-12-05T15:26:17.960Z,75.17
2018-12-05T15:28:46.790Z,75.15
2018-12-05T15:31:15.625Z,75.15
2018-12-05T15:33:45.782Z,75.77
2018-12-05T15:36:14.606Z,75.74
2018-12-05T15:38:43.446Z,75.73
2018-12-05T15:41:12.330Z,75.82
2018-12-05T15:43:41.153Z,76.15
2018-12-05T15:46:09.992Z,76.04
2018-12-05T15:48:40.084Z,76.07
2018-12-05T15:51:10.497Z,77.16
2018-12-05T15:53:39.335Z,76.78
2018-12-05T15:56:08.178Z,76.78
2018-12-05T15:58:37.253Z,76.27
2018-12-05T16:01:06.118Z,75.64
2018-12-05T16:03:34.926Z,75.93
2018-12-05T16:06:05.149Z,76.87
2018-12-05T16:08:34.001Z,76.54
2018-12-05T16:11:04.121Z,76.51
2018-12-05T16:13:33.022Z,77.88
2018-12-05T16:16:01.873Z,77.42
2018-12-05T16:18:30.789Z,76.97
2018-12-05T16:20:59.644Z,76.54
2018-12-05T16:23:28.514Z,77.83
2018-12-05T16:25:57.451Z,79.61
2018-12-05T16:28:26.269Z,78.32
2018-12-05T16:30:55.129Z,77.89
2018-12-05T16:33:23.989Z,77.38
2018-12-05T16:35:52.820Z,78.11
2018-12-05T16:38:21.768Z,77.22
2018-12-05T16:40:50.626Z,76.95
2018-12-05T16:43:19.466Z,77.82
2018-12-05T16:45:48.534Z,77.48
2018-12-05T16:48:17.369Z,77.68
2018-12-05T16:50:46.165Z,77.57
2018-12-05T16:53:15.030Z,77.49
2018-12-05T16:55:43.866Z,77.14
2018-12-05T16:58:14.014Z,76.94
2018-12-05T17:00:42.852Z,77.45
2018-12-05T17:03:11.798Z,76.86
2018-12-05T17:05:40.689Z,77.23
2018-12-05T17:08:09.542Z,77.54
2018-12-05T17:10:38.493Z,77.10
2018-12-05T17:13:10.968Z,77.09
2018-12-05T17:15:39.835Z,76.94
2018-12-05T17:18:09.946Z,77.04
2018-12-05T17:20:38.829Z,76.16
2018-12-05T17:23:07.693Z,76.51
2018-12-05T17:25:37.951Z,77.32
2018-12-05T17:28:06.837Z,76.95
2018-12-05T17:30:37.021Z,76.71
2018-12-05T17:33:05.909Z,76.57
2018-12-05T17:35:34.729Z,78.09
2018-12-05T17:38:03.581Z,77.58
2018-12-05T17:40:32.468Z,77.08
2018-12-05T17:43:01.349Z,76.30
2018-12-05T17:45:30.348Z,77.58
2018-12-05T17:47:59.184Z,77.20
2018-12-05T17:50:28.213Z,78.76
2018-12-05T17:52:57.260Z,79.19
2018-12-05T17:55:26.124Z,77.05
2018-12-05T17:57:55.001Z,76.97
2018-12-05T18:00:23.848Z,77.14
2018-12-05T18:02:52.690Z,77.76
2018-12-05T18:05:21.593Z,78.19
2018-12-05T18:07:50.416Z,78.88
2018-12-05T18:10:19.818Z,79.37
2018-12-05T18:12:52.675Z,79.32
2018-12-05T18:15:22.934Z,78.51
2018-12-05T18:17:51.959Z,79.55
2018-12-05T18:20:21.847Z,80.64
2018-12-05T18:22:50.740Z,80.18
2018-12-05T18:25:19.651Z,80.19
2018-12-05T18:27:48.476Z,79.74
2018-12-05T18:30:17.514Z,79.65
2018-12-05T18:32:46.391Z,78.75
2018-12-05T18:35:15.311Z,78.43
2018-12-05T18:37:44.221Z,78.51
2018-12-05T18:40:13.130Z,78.04
2018-12-05T18:42:42.026Z,78.04
2018-12-05T18:45:10.972Z,78.69
2018-12-05T18:47:39.892Z,79.37
2018-12-05T18:50:10.018Z,79.81
2018-12-05T18:52:38.949Z,79.70
2018-12-05T18:55:07.791Z,78.88
2018-12-05T18:57:36.663Z,79.39
2018-12-05T19:00:07.253Z,78.56
2018-12-05T19:02:36.151Z,78.13
2018-12-05T19:05:05.594Z,78.67
2018-12-05T19:07:34.437Z,78.95
2018-12-05T19:10:03.666Z,79.21
2018-12-05T19:12:32.522Z,78.83
2018-12-05T19:15:01.493Z,79.61
2018-12-05T19:17:30.439Z,78.03
2018-12-05T19:20:00.533Z,78.82
2018-12-05T19:22:29.534Z,78.76
2018-12-05T19:24:58.423Z,79.64
2018-12-05T19:27:28.559Z,79.68
2018-12-05T19:29:57.425Z,80.36
2018-12-05T19:32:26.265Z,80.00
2018-12-05T19:34:55.164Z,80.06
2018-12-05T19:37:24.035Z,80.62
2018-12-05T19:39:52.854Z,80.49
2018-12-05T19:42:23.100Z,80.04
2018-12-05T19:44:52.237Z,81.01
2018-12-05T19:47:21.066Z,79.05
2018-12-05T19:49:51.339Z,79.25
2018-12-05T19:52:20.165Z,79.24
2018-12-05T19:54:49.062Z,77.48
2018-12-05T19:57:19.181Z,78.84
2018-12-05T19:59:48.141Z,78.60
2018-12-05T20:02:18.548Z,79.10
2018-12-05T20:04:47.417Z,79.33
2018-12-05T20:07:16.270Z,77.85
2018-12-05T20:09:46.378Z,78.48
2018-12-05T20:12:15.273Z,77.70
2018-12-05T20:14:46.635Z,78.15
2018-12-05T20:17:15.598Z,78.90
2018-12-05T20:19:44.657Z,78.55
2018-12-05T20:22:13.494Z,78.62
2018-12-05T20:24:42.322Z,78.93
2018-12-05T20:27:12.800Z,78.41
2018-12-05T20:29:41.702Z,78.69
2018-12-05T20:32:10.522Z,78.82
2018-12-05T20:34:40.698Z,78.48
2018-12-05T20:37:09.568Z,79.27
2018-12-05T20:39:38.431Z,78.95
2018-12-05T20:42:08.826Z,78.92
2018-12-05T20:44:37.655Z,78.30
2018-12-05T20:47:06.638Z,78.42
2018-12-05T20:49:35.531Z,78.94
2018-12-05T20:52:05.421Z,79.09
2018-12-05T20:54:34.273Z,79.14
2018-12-05T20:57:03.138Z,79.29
2018-12-05T20:59:31.952Z,78.55
2018-12-05T21:02:00.790Z,79.01
2018-12-05T21:04:30.918Z,78.60
2018-12-05T21:06:59.927Z,78.78
2018-12-05T21:09:28.755Z,79.23
2018-12-05T21:11:59.220Z,78.73
2018-12-05T21:14:28.044Z,79.16
2018-12-05T21:16:56.861Z,79.20
2018-12-05T21:19:25.730Z,79.44
2018-12-05T21:21:54.641Z,79.78
2018-12-05T21:24:24.721Z,80.39
2018-12-05T21:26:53.597Z,80.00
2018-12-05T21:29:22.426Z,79.51
2018-12-05T21:31:52.792Z,78.99
2018-12-05T21:34:21.610Z,79.97
2018-12-05T21:36:50.559Z,80.11
2018-12-05T21:39:19.445Z,79.68
2018-12-05T21:41:49.170Z,80.23
2018-12-05T21:44:25.744Z,79.62
2018-12-05T21:46:54.621Z,80.22
2018-12-05T21:49:23.439Z,79.88
2018-12-05T21:51:52.322Z,79.67
2018-12-05T21:54:21.185Z,80.37
2018-12-05T21:56:50.017Z,80.09
2018-12-05T21:59:18.883Z,80.47
2018-12-05T22:01:47.778Z,80.20
2018-12-05T22:04:16.650Z,80.74
2018-12-05T22:06:45.450Z,81.01
2018-12-05T22:09:14.434Z,80.53
2018-12-05T22:11:43.269Z,79.10
2018-12-05T22:14:12.084Z,79.73
2018-12-05T22:16:40.917Z,80.15
2018-12-05T22:19:09.839Z,79.33
2018-12-05T22:21:38.692Z,79.14
2018-12-05T22:24:07.763Z,79.03
2018-12-05T22:26:36.679Z,79.45
2018-12-05T22:29:05.592Z,79.60
2018-12-05T22:31:34.473Z,79.25
2018-12-05T22:34:03.374Z,79.96
2018-12-05T22:36:32.238Z,80.89
2018-12-05T22:39:01.161Z,82.27
2018-12-05T22:41:30.066Z,81.19
2018-12-05T22:43:58.956Z,80.55
2018-12-05T22:46:27.852Z,80.87
2018-12-05T22:48:56.778Z,80.35
2018-12-05T22:51:25.702Z,80.40
2018-12-05T22:53:54.569Z,78.86
2018-12-05T22:56:23.481Z,79.48
2018-12-05T22:58:52.322Z,80.18
2018-12-05T23:01:21.507Z,79.99
2018-12-05T23:03:50.525Z,79.26
2018-12-05T23:06:19.419Z,77.98
2018-12-05T23:08:48.234Z,77.27
2018-12-05T23:11:17.253Z,77.06
2018-12-05T23:13:46.077Z,77.87
2018-12-05T23:16:14.931Z,77.31
2018-12-05T23:18:43.757Z,77.02
2018-12-05T23:21:12.565Z,75.96
2018-12-05T23:23:41.418Z,75.17
2018-12-05T23:26:10.245Z,76.11
2018-12-05T23:28:39.064Z,75.53
2018-12-05T23:31:07.952Z,75.54
2018-12-05T23:33:36.814Z,75.41
2018-12-05T23:36:05.630Z,74.82
2018-12-05T23:38:34.476Z,75.38
2018-12-05T23:41:03.315Z,74.10
2018-12-05T23:43:32.138Z,74.43
2018-12-05T23:46:02.306Z,74.63
2018-12-05T23:48:31.159Z,74.43
2018-12-05T23:51:01.697Z,74.37
2018-12-05T23:53:31.584Z,73.49
2018-12-05T23:56:05.513Z,73.86
2018-12-05T23:58:35.750Z,74.22
